Time;durP1;ratioP1;P1;durP2;ratioP2;P2;SDS_P1;SDS_P2;PMS_P1;PMS_P2;Temp;Humidity;BMP_temperature;BMP_pressure;BME280_temperature;BME280_humidity;BME280_pressure;Samples;Min_cycle;Max_cycle;Signal;HPM_P1;HPM_P2
2022/11/13 00:01:43;;;;;;;0.70;0.70;;;;;;;10.37;100.00;101674.00;5078742;28;20288;-73
2022/11/13 00:04:12;;;;;;;1.55;1.55;;;;;;;10.81;100.00;101739.75;5075298;28;20256;-74
2022/11/13 00:06:38;;;;;;;0.70;0.70;;;;;;;10.95;100.00;101757.66;5085589;28;20244;-73
2022/11/13 00:09:05;;;;;;;0.60;0.60;;;;;;;11.00;100.00;101760.44;5049939;28;20618;-73
2022/11/13 00:11:32;;;;;;;0.70;0.70;;;;;;;11.03;100.00;101763.16;5078815;28;20620;-73
2022/11/13 00:13:59;;;;;;;0.60;0.60;;;;;;;11.06;100.00;101765.00;5070997;28;20256;-73
2022/11/13 00:16:25;;;;;;;0.80;0.80;;;;;;;11.07;100.00;101765.06;5089084;28;20192;-73
2022/11/13 00:18:52;;;;;;;0.50;0.50;;;;;;;10.57;100.00;101686.88;5077286;28;20249;-74
2022/11/13 00:21:22;;;;;;;0.70;0.70;;;;;;;11.08;100.00;101779.81;5088982;28;20221;-74
2022/11/13 00:23:50;;;;;;;0.70;0.70;;;;;;;11.08;100.00;101774.63;5085188;28;20199;-73
2022/11/13 00:26:18;;;;;;;0.70;0.70;;;;;;;11.07;100.00;101765.06;5070963;28;20217;-73
2022/11/13 00:28:45;;;;;;;0.60;0.60;;;;;;;11.07;100.00;101766.75;5072844;28;20210;-74
2022/11/13 00:31:14;;;;;;;0.60;0.60;;;;;;;11.04;100.00;101770.13;5081467;28;20206;-73
2022/11/13 00:33:41;;;;;;;0.82;0.82;;;;;;;11.01;100.00;101769.13;5071510;28;20225;-73
2022/11/13 00:36:14;;;;;;;0.70;0.70;;;;;;;11.01;100.00;101764.81;5090860;28;20198;-74
2022/11/13 00:38:42;;;;;;;0.60;0.60;;;;;;;11.01;100.00;101766.53;5079166;28;20209;-73
2022/11/13 00:41:08;;;;;;;0.60;0.60;;;;;;;10.96;100.00;101768.94;5071513;28;20215;-73
2022/11/13 00:43:35;;;;;;;1.00;1.00;;;;;;;10.83;100.00;101751.09;5070710;28;20202;-73
2022/11/13 00:46:02;;;;;;;0.73;0.73;;;;;;;10.96;100.00;101763.72;5087058;28;20557;-73
2022/11/13 00:48:29;;;;;;;0.60;0.60;;;;;;;10.84;100.00;101743.34;5076944;28;20618;-73
2022/11/13 00:50:56;;;;;;;0.60;0.60;;;;;;;10.77;100.00;101743.06;5079917;28;20207;-72
2022/11/13 00:53:23;;;;;;;0.52;0.52;;;;;;;10.88;100.00;101771.22;5088860;28;20596;-72
2022/11/13 00:55:51;;;;;;;0.65;0.65;;;;;;;10.82;100.00;101747.63;5070692;28;20203;-73
2022/11/13 00:58:18;;;;;;;0.60;0.60;;;;;;;10.96;100.00;101763.72;5072732;28;20197;-73
2022/11/13 01:00:47;;;;;;;0.80;0.80;;;;;;;10.92;100.00;101765.31;5070408;28;20194;-72
2022/11/13 01:03:15;;;;;;;0.70;0.70;;;;;;;10.87;100.00;101763.38;5070584;28;20210;-72
2022/11/13 01:05:44;;;;;;;0.70;0.70;;;;;;;10.77;100.00;101764.69;5070816;28;20195;-73
2022/11/13 01:08:15;;;;;;;0.70;0.70;;;;;;;10.68;100.00;101763.44;5086093;28;20213;-73
2022/11/13 01:10:45;;;;;;;0.63;0.63;;;;;;;10.73;100.00;101764.53;5090453;28;20194;-73
2022/11/13 01:13:13;;;;;;;0.70;0.70;;;;;;;10.78;100.00;101760.38;5087988;28;20198;-73
2022/11/13 01:15:40;;;;;;;1.83;1.73;;;;;;;10.73;100.00;101731.69;5032710;28;20637;-72
2022/11/13 01:18:07;;;;;;;1.88;1.77;;;;;;;10.89;100.00;101738.34;5068139;28;20199;-72
2022/11/13 01:20:35;;;;;;;1.02;1.02;;;;;;;11.09;100.00;101747.84;5071892;28;20205;-72
2022/11/13 01:23:02;;;;;;;0.70;0.70;;;;;;;10.96;100.00;101714.41;5071556;28;20210;-72
2022/11/13 01:25:30;;;;;;;0.60;0.60;;;;;;;11.06;100.00;101719.16;5079309;28;20199;-73
2022/11/13 01:27:57;;;;;;;0.60;0.60;;;;;;;11.13;100.00;101728.09;5055389;28;20194;-72
2022/11/13 01:30:25;;;;;;;0.60;0.60;;;;;;;11.02;100.00;101744.94;5070986;28;20297;-73
2022/11/13 01:32:52;;;;;;;0.60;0.60;;;;;;;10.97;100.00;101739.56;5070162;28;20257;-73
2022/11/13 01:35:18;;;;;;;0.60;0.60;;;;;;;11.09;100.00;101741.75;5070169;28;20615;-72
2022/11/13 01:37:45;;;;;;;0.70;0.70;;;;;;;11.07;100.00;101723.53;5070149;28;20199;-72
2022/11/13 01:40:14;;;;;;;0.50;0.50;;;;;;;11.25;100.00;101745.00;5070584;28;20199;-73
2022/11/13 01:42:41;;;;;;;0.60;0.60;;;;;;;11.06;100.00;101716.53;5070095;28;20223;-73
2022/11/13 01:45:40;;;;;;;0.93;0.93;;;;;;;11.28;100.00;101747.72;5071863;28;20214;-73
2022/11/13 01:48:12;;;;;;;0.68;0.68;;;;;;;11.19;100.00;101752.56;5084736;28;20199;-73
2022/11/13 01:50:39;;;;;;;0.80;0.80;;;;;;;11.12;100.00;101753.16;5079233;28;20202;-73
2022/11/13 01:53:07;;;;;;;0.85;0.85;;;;;;;11.11;100.00;101751.38;5059103;28;20314;-73
2022/11/13 01:55:34;;;;;;;0.50;0.50;;;;;;;11.03;100.00;101749.28;5069646;28;20234;-74
2022/11/13 01:58:02;;;;;;;0.60;0.60;;;;;;;10.92;100.00;101733.28;5078185;28;20198;-73
2022/11/13 02:00:29;;;;;;;0.60;0.60;;;;;;;10.93;100.00;101735.06;5093073;28;20212;-73
2022/11/13 02:02:56;;;;;;;0.80;0.80;;;;;;;10.96;100.00;101750.75;5093567;28;20230;-73
2022/11/13 02:05:24;;;;;;;1.10;1.10;;;;;;;10.88;100.00;101752.16;5066717;28;20698;-73
2022/11/13 02:07:51;;;;;;;0.70;0.70;;;;;;;10.68;100.00;101755.66;5075608;28;20670;-73
2022/11/13 02:10:18;;;;;;;0.60;0.60;;;;;;;10.55;100.00;101746.50;5073757;28;20191;-73
2022/11/13 02:12:49;;;;;;;1.60;1.37;;;;;;;10.63;100.00;101767.56;5084335;28;20198;-73
2022/11/13 02:15:18;;;;;;;0.60;0.60;;;;;;;10.59;100.00;101758.78;5087384;28;20211;-73
2022/11/13 02:17:48;;;;;;;0.63;0.63;;;;;;;10.53;100.00;101758.50;5074840;28;20565;-73
2022/11/13 02:20:16;;;;;;;1.10;1.10;;;;;;;10.56;100.00;101756.03;5092063;28;20194;-73
2022/11/13 02:22:56;;;;;;;0.80;0.80;;;;;;;10.64;100.00;101753.75;5078937;28;20237;-73
2022/11/13 02:25:25;;;;;;;0.57;0.57;;;;;;;10.50;100.00;101758.38;5081831;28;20197;-73
2022/11/13 02:27:52;;;;;;;0.50;0.50;;;;;;;10.41;100.00;101738.13;5018096;28;20630;-73
2022/11/13 02:30:22;;;;;;;0.70;0.70;;;;;;;10.02;100.00;101658.66;5053294;28;20203;-73
2022/11/13 02:32:50;;;;;;;1.53;1.53;;;;;;;10.53;100.00;101753.31;5055953;28;20292;-73
2022/11/13 02:35:21;;;;;;;0.60;0.60;;;;;;;10.59;100.00;101755.28;5059511;28;20198;-73
2022/11/13 02:37:48;;;;;;;0.60;0.60;;;;;;;10.47;100.00;101752.16;5073510;28;20191;-73
2022/11/13 02:40:14;;;;;;;1.03;0.90;;;;;;;10.44;100.00;101746.03;5072022;28;20215;-73
2022/11/13 02:42:43;;;;;;;0.90;0.90;;;;;;;10.52;100.00;101755.84;5072753;28;20234;-76
2022/11/13 02:45:10;;;;;;;0.60;0.60;;;;;;;10.51;100.00;101751.47;5053460;28;20195;-77
2022/11/13 02:47:40;;;;;;;0.60;0.60;;;;;;;10.61;100.00;101751.03;5072101;28;20199;-73
2022/11/13 02:50:08;;;;;;;0.70;0.70;;;;;;;10.39;100.00;101719.03;5087184;28;20674;-73
2022/11/13 02:52:36;;;;;;;0.77;0.77;;;;;;;10.65;100.00;101748.63;5080820;28;20194;-74
2022/11/13 02:55:03;;;;;;;0.70;0.70;;;;;;;10.71;100.00;101742.81;5072746;28;20195;-74
2022/11/13 02:57:30;;;;;;;0.70;0.70;;;;;;;10.73;100.00;101747.25;5082598;28;20209;-72
2022/11/13 02:59:58;;;;;;;0.60;0.60;;;;;;;10.83;100.00;101743.31;5092427;28;20213;-73
2022/11/13 03:02:24;;;;;;;1.33;1.33;;;;;;;10.79;100.00;101741.41;5092108;28;20632;-73
2022/11/13 03:04:51;;;;;;;0.70;0.70;;;;;;;10.73;100.00;101725.59;5074724;28;20203;-73
2022/11/13 03:07:18;;;;;;;1.00;1.00;;;;;;;10.74;100.00;101727.34;5072494;28;20195;-74
2022/11/13 03:09:45;;;;;;;0.88;0.88;;;;;;;10.85;100.00;101736.47;5050199;28;20202;-73
2022/11/13 03:12:12;;;;;;;0.60;0.60;;;;;;;10.91;100.00;101741.91;5087070;28;20198;-73
2022/11/13 03:14:39;;;;;;;0.60;0.60;;;;;;;10.93;100.00;101745.44;5087787;28;20194;-72
2022/11/13 03:17:07;;;;;;;0.55;0.55;;;;;;;11.03;100.00;101744.97;5072685;28;20592;-74
2022/11/13 03:19:34;;;;;;;0.60;0.60;;;;;;;11.03;100.00;101750.19;5033434;28;20706;-74
2022/11/13 03:22:01;;;;;;;0.70;0.70;;;;;;;11.09;100.00;101745.25;5050659;28;20223;-73
2022/11/13 03:24:27;;;;;;;0.60;0.60;;;;;;;10.61;100.00;101661.13;5085407;28;20190;-73
2022/11/13 03:26:54;;;;;;;0.98;0.98;;;;;;;11.12;100.00;101758.34;5056792;28;20202;-73
2022/11/13 03:29:21;;;;;;;0.70;0.70;;;;;;;11.16;100.00;101757.66;5047478;28;20195;-73
2022/11/13 03:31:48;;;;;;;1.58;1.48;;;;;;;11.16;100.00;101754.16;5065872;28;20202;-73
2022/11/13 03:34:16;;;;;;;0.70;0.70;;;;;;;11.34;100.00;101753.13;5072586;28;20203;-74
2022/11/13 03:36:43;;;;;;;0.45;0.45;;;;;;;11.30;100.00;101747.78;5071729;28;20861;-73
2022/11/13 03:39:10;;;;;;;0.70;0.70;;;;;;;11.11;100.00;101719.31;5071434;28;20555;-73
2022/11/13 03:41:36;;;;;;;0.60;0.60;;;;;;;11.34;100.00;101760.94;5071546;28;20226;-73
2022/11/13 03:44:03;;;;;;;0.90;0.90;;;;;;;11.33;100.00;101759.19;5079379;28;20201;-73
2022/11/13 03:46:30;;;;;;;0.60;0.60;;;;;;;11.32;100.00;101760.00;5091488;28;20256;-73
2022/11/13 03:48:57;;;;;;;0.77;0.77;;;;;;;11.35;100.00;101761.81;5054924;28;20639;-72
2022/11/13 03:51:25;;;;;;;0.98;0.98;;;;;;;11.42;100.00;101767.31;5073477;28;20199;-73
2022/11/13 03:53:52;;;;;;;0.60;0.60;;;;;;;11.42;100.00;101759.53;5079256;28;20202;-73
2022/11/13 03:56:18;;;;;;;0.77;0.77;;;;;;;11.45;100.00;101759.63;5091219;28;20197;-72
2022/11/13 03:58:45;;;;;;;1.05;1.05;;;;;;;11.48;100.00;101758.00;5089563;28;20205;-75
2022/11/13 04:01:12;;;;;;;0.50;0.50;;;;;;;11.36;100.00;101742.81;5091088;28;20197;-72
2022/11/13 04:03:39;;;;;;;0.70;0.70;;;;;;;11.49;100.00;101757.16;5089778;28;20225;-73
2022/11/13 04:06:06;;;;;;;0.60;0.60;;;;;;;11.10;100.00;101681.22;5075236;28;20209;-72
2022/11/13 04:08:34;;;;;;;0.63;0.63;;;;;;;11.59;100.00;101754.09;5074581;28;20209;-72
2022/11/13 04:11:06;;;;;;;0.60;0.60;;;;;;;11.64;100.00;101761.22;5083742;28;20191;-72
2022/11/13 04:13:33;;;;;;;0.60;0.60;;;;;;;11.55;100.00;101731.44;5080321;28;20202;-73
2022/11/13 04:16:00;;;;;;;0.60;0.60;;;;;;;11.63;100.00;101753.38;5078695;28;20199;-72
2022/11/13 04:18:27;;;;;;;1.35;1.35;;;;;;;11.63;100.00;101753.38;5075969;28;20190;-73
2022/11/13 04:20:59;;;;;;;0.70;0.70;;;;;;;11.69;100.00;101751.91;5089258;28;20190;-74
2022/11/13 04:23:26;;;;;;;0.57;0.57;;;;;;;11.40;100.00;101724.81;5080132;28;20233;-73
2022/11/13 04:25:54;;;;;;;0.68;0.68;;;;;;;11.66;100.00;101748.31;5090723;28;20202;-73
2022/11/13 04:28:21;;;;;;;0.70;0.70;;;;;;;11.45;100.00;101710.28;5089409;28;20206;-73
2022/11/13 04:30:48;;;;;;;0.57;0.57;;;;;;;11.18;100.00;101652.13;5088683;28;20193;-73
2022/11/13 04:33:15;;;;;;;0.50;0.50;;;;;;;11.59;100.00;101725.53;5086876;28;20235;-73
2022/11/13 04:35:44;;;;;;;0.50;0.50;;;;;;;11.74;100.00;101746.88;5090720;28;20895;-73
2022/11/13 04:38:11;;;;;;;0.52;0.52;;;;;;;11.53;100.00;101707.09;5077422;28;20978;-73
2022/11/13 04:40:38;;;;;;;0.85;0.85;;;;;;;11.76;100.00;101745.25;5083149;28;20202;-73
2022/11/13 04:43:06;;;;;;;0.80;0.80;;;;;;;11.86;100.00;101752.53;5072110;28;20229;-73
2022/11/13 04:45:33;;;;;;;0.60;0.60;;;;;;;11.75;100.00;101753.84;5089221;28;20194;-74
2022/11/13 04:47:59;;;;;;;0.88;0.88;;;;;;;11.73;100.00;101745.13;5073559;28;20633;-73
2022/11/13 04:50:26;;;;;;;0.60;0.60;;;;;;;11.61;100.00;101753.31;5091170;28;20559;-73
2022/11/13 04:52:53;;;;;;;2.83;1.58;;;;;;;11.44;100.00;101725.81;5081522;28;20203;-73
2022/11/13 04:55:20;;;;;;;0.93;0.93;;;;;;;11.61;100.00;101744.63;5090434;28;20203;-73
2022/11/13 04:57:50;;;;;;;0.90;0.90;;;;;;;11.61;100.00;101735.13;5091026;28;20856;-73
2022/11/13 05:00:18;;;;;;;0.60;0.60;;;;;;;11.65;100.00;101739.63;5073290;28;20261;-73
2022/11/13 05:02:45;;;;;;;0.60;0.60;;;;;;;11.50;100.00;101719.97;5050881;28;20222;-73
2022/11/13 05:05:12;;;;;;;0.60;0.60;;;;;;;11.53;100.00;101730.47;5088705;28;20263;-73
2022/11/13 05:07:39;;;;;;;0.70;0.70;;;;;;;11.60;100.00;101733.34;5072945;28;20221;-74
2022/11/13 05:10:06;;;;;;;0.70;0.70;;;;;;;11.67;100.00;101730.16;5071152;28;20570;-73
2022/11/13 05:12:33;;;;;;;1.13;1.13;;;;;;;11.64;100.00;101727.44;5082450;28;20207;-73
2022/11/13 05:14:59;;;;;;;0.65;0.65;;;;;;;11.63;100.00;101723.06;5088157;28;20201;-73
2022/11/13 05:17:28;;;;;;;0.60;0.60;;;;;;;11.73;100.00;101730.44;5080528;28;20207;-73
2022/11/13 05:19:54;;;;;;;0.70;0.70;;;;;;;11.58;100.00;101700.34;5070823;28;20195;-74
2022/11/13 05:22:21;;;;;;;0.60;0.60;;;;;;;11.54;100.00;101733.13;5070765;28;20280;-73
2022/11/13 05:24:48;;;;;;;0.70;0.70;;;;;;;11.40;100.00;101726.53;5084761;28;20226;-74
2022/11/13 05:27:15;;;;;;;0.70;0.70;;;;;;;11.28;100.00;101726.06;5071041;28;20209;-74
2022/11/13 05:29:41;;;;;;;0.65;0.65;;;;;;;11.15;100.00;101706.53;5090134;28;20206;-73
2022/11/13 05:32:08;;;;;;;0.98;0.98;;;;;;;10.86;100.00;101656.09;5077833;28;20249;-73
2022/11/13 05:34:36;;;;;;;0.60;0.60;;;;;;;11.20;100.00;101720.56;5081735;28;20186;-73
2022/11/13 05:37:03;;;;;;;0.52;0.52;;;;;;;10.63;100.00;101632.69;5068494;28;20219;-73
2022/11/13 05:39:30;;;;;;;0.60;0.60;;;;;;;11.08;100.00;101720.09;5042399;28;20652;-73
2022/11/13 05:41:57;;;;;;;0.77;0.77;;;;;;;11.15;100.00;101723.81;5076680;28;20884;-74
2022/11/13 05:44:23;;;;;;;0.60;0.60;;;;;;;11.23;100.00;101723.31;5092129;28;20597;-73
2022/11/13 05:46:50;;;;;;;0.80;0.80;;;;;;;11.29;100.00;101731.31;5076870;28;20678;-73
2022/11/13 05:49:17;;;;;;;0.60;0.60;;;;;;;11.22;100.00;101744.00;5058340;28;20213;-73
2022/11/13 05:51:45;;;;;;;0.50;0.50;;;;;;;11.19;100.00;101754.28;5083746;28;20199;-73
2022/11/13 05:54:12;;;;;;;0.90;0.90;;;;;;;11.11;100.00;101761.75;5081418;28;20202;-73
2022/11/13 05:56:39;;;;;;;0.63;0.63;;;;;;;11.25;100.00;101751.91;5075200;28;20206;-72
2022/11/13 05:59:06;;;;;;;0.70;0.70;;;;;;;11.38;100.00;101757.63;5065647;28;20195;-72
2022/11/13 06:01:35;;;;;;;0.60;0.60;;;;;;;11.51;100.00;101745.13;5040611;28;20199;-72
2022/11/13 06:04:02;;;;;;;0.70;0.70;;;;;;;11.57;100.00;101759.22;5067302;28;20223;-74
2022/11/13 06:06:30;;;;;;;0.60;0.60;;;;;;;11.51;100.00;101759.00;5058573;28;20203;-72
2022/11/13 06:09:00;;;;;;;0.60;0.60;;;;;;;11.47;100.00;101764.00;5073695;28;20225;-75
2022/11/13 06:11:28;;;;;;;0.57;0.57;;;;;;;11.40;100.00;101703.16;5087433;28;20199;-73
2022/11/13 06:13:56;;;;;;;1.40;1.30;;;;;;;11.78;100.00;101753.97;5083619;28;20225;-73
2022/11/13 06:16:26;;;;;;;0.65;0.65;;;;;;;12.04;100.00;101753.22;5072074;28;20199;-73
2022/11/13 06:18:56;;;;;;;0.60;0.60;;;;;;;12.03;100.00;101756.63;5081529;28;20202;-73
2022/11/13 06:21:25;;;;;;;0.70;0.70;;;;;;;12.01;100.00;101758.31;5071531;28;20674;-74
2022/11/13 06:23:52;;;;;;;0.60;0.60;;;;;;;12.05;100.00;101765.38;5071542;28;20227;-73
2022/11/13 06:26:22;;;;;;;0.60;0.60;;;;;;;12.29;100.00;101735.03;5052896;28;20612;-73
2022/11/13 06:28:49;;;;;;;0.75;0.75;;;;;;;12.54;100.00;101751.47;5053076;28;20211;-73
2022/11/13 06:31:19;;;;;;;0.70;0.70;;;;;;;12.59;100.00;101745.56;5058735;28;20210;-75
2022/11/13 06:33:45;;;;;;;0.90;0.90;;;;;;;12.02;100.00;101773.03;5061521;28;20669;-75
2022/11/13 06:36:14;;;;;;;0.68;0.68;;;;;;;12.01;100.00;101753.09;5065159;28;20687;-75
2022/11/13 06:38:42;;;;;;;0.75;0.75;;;;;;;11.95;100.00;101713.88;5065306;28;20235;-76
2022/11/13 06:41:12;;;;;;;1.02;1.02;;;;;;;12.45;100.00;101772.84;5052539;28;20208;-73
2022/11/13 06:43:40;;;;;;;0.70;0.70;;;;;;;12.27;100.00;101773.09;5061675;28;20221;-76
2022/11/13 06:46:10;;;;;;;0.70;0.70;;;;;;;12.33;100.00;101794.13;5065173;28;20199;-74
2022/11/13 06:48:37;;;;;;;0.75;0.75;;;;;;;12.61;100.00;101785.56;5053900;28;20214;-74
2022/11/13 06:51:06;;;;;;;2.70;1.42;;;;;;;11.99;100.00;101752.16;5067755;28;20215;-73
2022/11/13 06:53:34;;;;;;;0.95;0.95;;;;;;;12.22;100.00;101787.66;5059842;28;20202;-73
2022/11/13 06:56:04;;;;;;;0.60;0.60;;;;;;;12.65;100.00;101770.94;5065310;28;20203;-73
2022/11/13 06:58:31;;;;;;;1.10;1.10;;;;;;;12.86;100.00;101777.75;5019118;28;20207;-75
2022/11/13 07:01:05;;;;;;;4.38;1.17;;;;;;;12.46;100.00;101794.53;5066457;28;20196;-75
2022/11/13 07:03:32;;;;;;;0.60;0.60;;;;;;;12.44;100.00;101791.91;5067163;28;20230;-73
2022/11/13 07:06:01;;;;;;;0.55;0.55;;;;;;;12.59;100.00;101792.41;5056419;28;20203;-76
2022/11/13 07:08:28;;;;;;;0.63;0.63;;;;;;;12.58;100.00;101794.97;5071662;28;20696;-75
2022/11/13 07:10:56;;;;;;;0.80;0.80;;;;;;;12.90;100.00;101795.25;5071252;28;20268;-76
2022/11/13 07:13:23;;;;;;;1.05;1.05;;;;;;;12.90;100.00;101782.22;5052079;28;20214;-75
2022/11/13 07:15:50;;;;;;;0.50;0.50;;;;;;;13.06;100.00;101799.19;5070877;28;20248;-74
2022/11/13 07:18:19;;;;;;;0.50;0.50;;;;;;;13.12;100.00;101806.38;5071312;28;20217;-76
2022/11/13 07:20:46;;;;;;;1.42;0.68;;;;;;;13.12;100.00;101811.59;5080621;28;20194;-75
2022/11/13 07:23:12;;;;;;;1.20;0.90;;;;;;;13.26;100.00;101807.72;5077119;28;20702;-75
2022/11/13 07:25:39;;;;;;;0.50;0.50;;;;;;;13.20;100.00;101810.97;5071952;28;20203;-75
2022/11/13 07:28:06;;;;;;;0.70;0.70;;;;;;;12.61;100.00;101777.75;5071850;28;20206;-75
2022/11/13 07:30:33;;;;;;;0.70;0.70;;;;;;;12.82;100.00;101801.91;5072002;28;20202;-76
2022/11/13 07:33:02;;;;;;;0.60;0.60;;;;;;;12.86;100.00;101795.97;5070938;28;20693;-75
2022/11/13 07:35:30;;;;;;;0.60;0.60;;;;;;;12.85;100.00;101796.78;5071185;28;20198;-75
2022/11/13 07:37:57;;;;;;;1.30;1.30;;;;;;;12.63;100.00;101789.09;5071143;28;20213;-74
2022/11/13 07:40:24;;;;;;;0.68;0.68;;;;;;;12.51;100.00;101782.59;5071038;28;20203;-74
2022/11/13 07:42:57;;;;;;;0.60;0.60;;;;;;;12.71;100.00;101781.53;5075220;28;20231;-75
2022/11/13 07:45:24;;;;;;;0.60;0.60;;;;;;;12.61;100.00;101788.16;5071631;28;20199;-75
2022/11/13 07:47:50;;;;;;;0.70;0.70;;;;;;;12.69;100.00;101789.31;5064862;28;20682;-74
2022/11/13 07:50:17;;;;;;;0.60;0.60;;;;;;;12.78;100.00;101747.06;5061777;28;20199;-74
2022/11/13 07:52:46;;;;;;;1.02;1.02;;;;;;;12.98;100.00;101782.47;5019126;28;20200;-74
2022/11/13 07:55:12;;;;;;;0.60;0.60;;;;;;;12.90;100.00;101757.91;5050116;28;20218;-74
2022/11/13 07:57:39;;;;;;;0.60;0.60;;;;;;;12.87;100.00;101748.28;5020815;28;20271;-74
2022/11/13 08:00:07;;;;;;;0.63;0.63;;;;;;;13.03;100.00;101757.44;5058670;28;20225;-74
2022/11/13 08:02:34;;;;;;;0.60;0.60;;;;;;;12.70;100.00;101720.78;5064089;28;20203;-74
2022/11/13 08:05:01;;;;;;;0.60;0.60;;;;;;;13.36;100.00;101781.09;5057937;28;20202;-73
2022/11/13 08:07:28;;;;;;;0.60;0.60;;;;;;;13.36;100.00;101787.19;5070509;28;20681;-75
2022/11/13 08:09:56;;;;;;;0.60;0.60;;;;;;;13.65;100.00;101785.47;5064478;28;20691;-74
2022/11/13 08:12:23;;;;;;;0.60;0.60;;;;;;;13.69;100.00;101778.63;5059511;28;20195;-74
2022/11/13 08:14:49;;;;;;;4.60;2.83;;;;;;;13.75;100.00;101782.28;5050770;28;20200;-74
2022/11/13 08:17:16;;;;;;;1.00;1.00;;;;;;;13.95;100.00;101788.06;5019367;28;20215;-73
2022/11/13 08:19:43;;;;;;;0.60;0.60;;;;;;;13.89;100.00;101787.91;5054743;28;20211;-73
2022/11/13 08:22:10;;;;;;;0.60;0.60;;;;;;;13.84;100.00;101799.94;5051365;28;20199;-73
2022/11/13 08:24:36;;;;;;;0.80;0.80;;;;;;;13.17;100.00;101790.06;5053808;28;20614;-74
2022/11/13 08:27:06;;;;;;;0.60;0.60;;;;;;;13.62;100.00;101790.59;5050393;28;20203;-74
2022/11/13 08:29:36;;;;;;;0.60;0.60;;;;;;;13.78;100.00;101784.09;5060927;28;20198;-75
2022/11/13 08:32:02;;;;;;;0.70;0.70;;;;;;;13.55;100.00;101778.22;5069321;28;20222;-75
2022/11/13 08:34:29;;;;;;;0.70;0.70;;;;;;;14.04;100.00;101792.69;5029527;28;20575;-74
2022/11/13 08:36:56;;;;;;;0.70;0.70;;;;;;;14.21;100.00;101789.69;5050514;28;20203;-75
2022/11/13 08:39:23;;;;;;;0.50;0.50;;;;;;;13.84;100.00;101703.47;5051359;28;20206;-74
2022/11/13 08:41:50;;;;;;;0.60;0.60;;;;;;;13.59;100.00;101763.56;5054637;28;20218;-74
2022/11/13 08:44:18;;;;;;;1.17;1.08;;;;;;;14.14;100.00;101792.09;5054310;28;20234;-74
2022/11/13 08:46:45;;;;;;;0.60;0.60;;;;;;;14.13;100.00;101801.63;5054511;28;20231;-75
2022/11/13 08:49:12;;;;;;;0.55;0.55;;;;;;;13.86;100.00;101775.66;5059477;28;20884;-74
2022/11/13 08:51:38;;;;;;;0.60;0.60;;;;;;;13.64;100.00;101768.06;5049905;28;20289;-74
2022/11/13 08:54:05;;;;;;;0.45;0.45;;;;;;;13.84;100.00;101779.94;5020968;28;20206;-74
2022/11/13 08:56:32;;;;;;;0.88;0.88;;;;;;;13.93;100.00;101778.44;5060423;28;20203;-73
2022/11/13 08:58:59;;;;;;;1.08;1.08;;;;;;;13.99;100.00;101781.22;5054828;28;20203;-75
2022/11/13 09:01:27;;;;;;;0.52;0.52;;;;;;;14.20;100.00;101787.91;5055639;28;20230;-74
2022/11/13 09:03:54;;;;;;;0.60;0.60;;;;;;;14.38;100.00;101762.34;5058147;28;20233;-74
2022/11/13 09:06:20;;;;;;;0.50;0.50;;;;;;;14.27;100.00;101748.09;5051515;28;20195;-75
2022/11/13 09:08:47;;;;;;;1.13;1.13;;;;;;;14.67;100.00;101788.34;5066380;28;20208;-74
2022/11/13 09:11:14;;;;;;;1.02;1.02;;;;;;;14.40;100.00;101757.19;5090345;28;20210;-76
2022/11/13 09:13:41;;;;;;;0.95;0.95;;;;;;;14.58;100.00;101785.50;5082860;28;20198;-76
2022/11/13 09:16:08;;;;;;;0.70;0.70;;;;;;;14.46;100.00;101778.22;5073965;28;20194;-76
2022/11/13 09:18:36;;;;;;;0.50;0.50;;;;;;;14.60;100.00;101773.34;5073993;28;20202;-75
2022/11/13 09:21:03;;;;;;;0.60;0.60;;;;;;;14.62;100.00;101772.56;5038402;28;20200;-76
2022/11/13 09:23:30;;;;;;;0.60;0.60;;;;;;;14.78;100.00;101773.81;5072936;28;20500;-76
2022/11/13 09:25:57;;;;;;;0.70;0.70;;;;;;;15.00;100.00;101770.00;5073483;28;20195;-75
2022/11/13 09:28:24;;;;;;;0.60;0.60;;;;;;;15.00;100.00;101770.91;5037516;28;20195;-75
2022/11/13 09:30:50;;;;;;;0.40;0.40;;;;;;;14.71;100.00;101762.34;5073156;28;20729;-75
2022/11/13 09:33:17;;;;;;;0.50;0.50;;;;;;;14.93;100.00;101748.09;5072262;28;20943;-76
2022/11/13 09:35:45;;;;;;;0.45;0.45;;;;;;;14.98;100.00;101762.16;5073315;28;20206;-75
2022/11/13 09:38:14;;;;;;;0.60;0.60;;;;;;;14.91;100.00;101754.13;5073447;28;20191;-75
2022/11/13 09:40:48;;;;;;;0.80;0.80;;;;;;;15.20;100.00;101753.94;5073311;28;20276;-74
2022/11/13 09:43:31;;;;;;;0.60;0.60;;;;;;;15.27;100.00;101748.00;5073117;28;20252;-74
2022/11/13 09:46:02;;;;;;;0.50;0.50;;;;;;;15.09;100.00;101754.56;5072882;28;20697;-74
2022/11/13 09:48:36;;;;;;;0.60;0.60;;;;;;;14.66;100.00;101713.47;5073336;28;20601;-74
2022/11/13 09:51:10;;;;;;;0.80;0.80;;;;;;;15.02;100.00;101743.06;5073084;28;20607;-75
2022/11/13 09:53:40;;;;;;;0.60;0.60;;;;;;;15.08;100.00;101743.22;5073098;28;20229;-74
2022/11/13 09:56:19;;;;;;;0.55;0.55;;;;;;;14.95;100.00;101725.47;5073079;28;20199;-74
2022/11/13 09:58:51;;;;;;;0.57;0.57;;;;;;;14.63;100.00;101718.59;5072757;28;20598;-74
2022/11/13 10:01:26;;;;;;;1.67;1.65;;;;;;;14.57;100.00;101727.19;5072653;28;20199;-74
2022/11/13 10:03:58;;;;;;;0.60;0.60;;;;;;;14.37;100.00;101703.19;5072862;28;20221;-74
2022/11/13 10:06:40;;;;;;;0.90;0.90;;;;;;;14.12;100.00;101716.41;5072799;28;20198;-74
2022/11/13 10:09:19;;;;;;;0.60;0.60;;;;;;;14.27;100.00;101702.84;5072823;28;20203;-74
2022/11/13 10:11:51;;;;;;;0.70;0.70;;;;;;;14.14;100.00;101687.75;5072443;28;20202;-74
2022/11/13 10:14:21;;;;;;;0.55;0.55;;;;;;;13.90;100.00;101682.75;5072857;28;20195;-74
2022/11/13 10:16:54;;;;;;;0.60;0.60;;;;;;;13.67;100.00;101652.56;5072499;28;20203;-74
2022/11/13 10:19:29;;;;;;;0.70;0.70;;;;;;;13.74;100.00;101681.44;5071914;28;20297;-74
2022/11/13 10:22:02;;;;;;;0.80;0.80;;;;;;;13.62;100.00;101688.06;5071729;28;20599;-74
2022/11/13 10:24:37;;;;;;;0.88;0.88;;;;;;;13.31;100.00;101653.28;5072389;28;20230;-73
2022/11/13 10:27:08;;;;;;;0.70;0.70;;;;;;;13.38;100.00;101668.25;5072609;28;20225;-76
2022/11/13 10:29:35;;;;;;;0.60;0.60;;;;;;;13.21;100.00;101679.91;5072238;28;20198;-75
2022/11/13 10:32:16;;;;;;;0.70;0.70;;;;;;;13.12;100.00;101639.69;5072059;28;20686;-74
2022/11/13 10:34:47;;;;;;;0.60;0.60;;;;;;;13.33;100.00;101661.16;5072209;28;20235;-73
2022/11/13 10:37:28;;;;;;;0.60;0.60;;;;;;;13.52;100.00;101657.38;5053771;28;20199;-73
2022/11/13 10:39:55;;;;;;;0.70;0.70;;;;;;;13.61;100.00;101652.41;5072056;28;20198;-73
2022/11/13 10:42:27;;;;;;;0.50;0.50;;;;;;;13.60;100.00;101661.03;5072393;28;20195;-73
2022/11/13 10:44:57;;;;;;;0.52;0.52;;;;;;;13.49;100.00;101645.13;5072088;28;20226;-74
2022/11/13 10:47:25;;;;;;;0.60;0.60;;;;;;;13.69;100.00;101654.38;5072342;28;20194;-74
2022/11/13 10:49:52;;;;;;;0.60;0.60;;;;;;;13.53;100.00;101639.16;5072270;28;20662;-74
2022/11/13 10:52:22;;;;;;;0.60;0.60;;;;;;;13.85;100.00;101645.25;5072064;28;20202;-73
2022/11/13 10:54:50;;;;;;;0.65;0.65;;;;;;;13.93;100.00;101659.38;5072263;28;20202;-74
2022/11/13 10:57:24;;;;;;;0.60;0.60;;;;;;;14.09;100.00;101653.69;5071983;28;20198;-74
2022/11/13 10:59:51;;;;;;;0.60;0.60;;;;;;;14.10;100.00;101649.38;5071973;28;20243;-75
2022/11/13 11:02:20;;;;;;;0.60;0.60;;;;;;;14.16;100.00;101639.97;5072072;28;20195;-74
2022/11/13 11:04:47;;;;;;;0.60;0.60;;;;;;;14.36;100.00;101638.78;5071617;28;20226;-74
2022/11/13 11:07:17;;;;;;;0.70;0.70;;;;;;;14.28;100.00;101577.66;5036440;28;20674;-74
2022/11/13 11:09:47;;;;;;;0.50;0.50;;;;;;;14.96;100.00;101661.94;5071854;28;20637;-74
2022/11/13 11:12:16;;;;;;;0.57;0.57;;;;;;;15.18;100.00;101666.81;5071645;28;20710;-74
2022/11/13 11:14:54;;;;;;;0.70;0.70;;;;;;;15.05;100.00;101570.75;5071795;28;20206;-75
2022/11/13 11:17:24;;;;;;;0.60;0.60;;;;;;;15.15;100.00;101664.13;5071633;28;20207;-74
2022/11/13 11:19:58;;;;;;;0.73;0.73;;;;;;;15.00;100.00;101655.94;5071552;28;20191;-75
2022/11/13 11:22:29;;;;;;;0.70;0.70;;;;;;;15.05;100.00;101636.06;5071091;28;20198;-75